createdAt,value
2019-02-06T00:02:18.112Z,60.85
2019-02-06T00:04:46.869Z,57.15
2019-02-06T00:07:15.789Z,58.00
2019-02-06T00:09:44.551Z,62.23
2019-02-06T00:12:13.319Z,62.58
2019-02-06T00:14:42.353Z,62.03
2019-02-06T00:17:11.142Z,62.30
2019-02-06T00:19:39.871Z,63.20
2019-02-06T00:22:08.670Z,69.53
2019-02-06T00:24:37.471Z,67.58
2019-02-06T00:27:06.199Z,64.72
2019-02-06T00:29:34.996Z,56.75
2019-02-06T00:32:04.512Z,55.90
2019-02-06T00:34:33.269Z,59.95
2019-02-06T00:37:02.070Z,63.68
2019-02-06T00:39:30.792Z,63.25
2019-02-06T00:41:59.520Z,52.38
2019-02-06T00:44:28.230Z,49.83
2019-02-06T00:46:57.030Z,51.75
2019-02-06T00:49:37.149Z,51.10
2019-02-06T00:52:05.950Z,51.10
2019-02-06T00:54:34.752Z,53.28
2019-02-06T00:57:03.594Z,49.88
2019-02-06T00:59:32.670Z,44.90
2019-02-06T01:02:01.471Z,42.95
2019-02-06T01:04:30.231Z,43.52
2019-02-06T01:06:59.030Z,42.20
2019-02-06T01:09:27.777Z,38.02
2019-02-06T01:11:56.513Z,39.18
2019-02-06T01:14:25.270Z,41.20
2019-02-06T01:16:54.029Z,39.18
2019-02-06T01:19:22.791Z,41.33
2019-02-06T01:21:51.512Z,39.40
2019-02-06T01:24:20.271Z,39.03
2019-02-06T01:26:48.950Z,34.80
2019-02-06T01:29:17.713Z,37.33
2019-02-06T01:31:46.885Z,36.77
2019-02-06T01:34:15.631Z,35.43
2019-02-06T01:36:44.349Z,35.98
2019-02-06T01:39:13.590Z,37.53
2019-02-06T01:41:42.349Z,36.33
2019-02-06T01:44:11.111Z,34.90
2019-02-06T01:46:39.991Z,34.13
2019-02-06T01:49:08.951Z,32.17
2019-02-06T01:51:37.713Z,36.53
2019-02-06T01:54:06.470Z,32.58
2019-02-06T01:56:35.273Z,32.45
2019-02-06T01:59:04.070Z,34.90
2019-02-06T02:01:32.871Z,30.50
2019-02-06T02:04:01.750Z,29.45
2019-02-06T02:06:30.510Z,26.85
2019-02-06T02:09:01.071Z,27.95
2019-02-06T02:11:29.909Z,27.67
2019-02-06T02:13:58.672Z,29.10
2019-02-06T02:16:27.391Z,29.77
2019-02-06T02:18:56.109Z,30.90
2019-02-06T02:21:24.989Z,29.82
2019-02-06T02:23:53.754Z,31.90
2019-02-06T02:26:22.471Z,30.82
2019-02-06T02:28:51.309Z,28.25
2019-02-06T02:31:20.069Z,28.95
2019-02-06T02:33:48.830Z,29.85
2019-02-06T02:36:17.990Z,29.70
2019-02-06T02:38:46.713Z,30.27
2019-02-06T02:41:15.440Z,30.60
2019-02-06T02:43:44.189Z,31.93
2019-02-06T02:46:12.951Z,30.32
2019-02-06T02:48:41.672Z,31.48
2019-02-06T02:51:10.710Z,27.00
2019-02-06T02:53:39.511Z,31.62
2019-02-06T02:56:08.270Z,31.23
2019-02-06T02:58:37.001Z,32.25
2019-02-06T03:01:16.157Z,30.55
2019-02-06T03:03:46.472Z,33.15
2019-02-06T03:06:27.258Z,34.05
2019-02-06T03:08:45.742Z,28.00
2019-02-06T03:11:14.434Z,29.40
2019-02-06T03:13:43.233Z,27.32
2019-02-06T03:16:11.990Z,27.20
2019-02-06T03:18:40.831Z,30.65
2019-02-06T03:21:09.791Z,31.37
2019-02-06T03:23:38.680Z,27.52
2019-02-06T03:26:07.430Z,27.22
2019-02-06T03:28:36.192Z,27.95
2019-02-06T03:31:04.994Z,29.45
2019-02-06T03:33:33.902Z,26.33
2019-02-06T03:36:03.031Z,24.30
2019-02-06T03:38:31.740Z,26.95
2019-02-06T03:41:00.595Z,26.25
2019-02-06T03:43:29.232Z,25.37
2019-02-06T03:45:57.913Z,25.48
2019-02-06T03:48:26.543Z,25.82
2019-02-06T03:50:55.218Z,25.57
2019-02-06T03:53:24.235Z,25.37
2019-02-06T03:55:52.892Z,26.35
2019-02-06T03:58:21.548Z,25.97
2019-02-06T04:00:50.343Z,25.27
2019-02-06T04:03:18.971Z,27.02
2019-02-06T04:05:47.627Z,24.82
2019-02-06T04:08:16.419Z,25.17
2019-02-06T04:10:45.146Z,26.15
2019-02-06T04:13:13.893Z,27.85
2019-02-06T04:15:42.736Z,27.58
2019-02-06T04:18:11.418Z,28.85
2019-02-06T04:20:40.080Z,31.02
2019-02-06T04:23:08.831Z,29.48
2019-02-06T04:25:37.532Z,27.98
2019-02-06T04:28:06.220Z,30.00
2019-02-06T04:30:34.866Z,34.78
2019-02-06T04:33:03.581Z,32.90
2019-02-06T04:35:32.223Z,32.05
2019-02-06T04:38:00.857Z,29.23
2019-02-06T04:40:29.823Z,28.57
2019-02-06T04:42:58.474Z,31.60
2019-02-06T04:45:27.463Z,30.17
2019-02-06T04:47:56.166Z,31.10
2019-02-06T04:50:24.848Z,29.30
2019-02-06T04:52:53.486Z,27.10
2019-02-06T04:55:22.195Z,29.27
2019-02-06T04:57:51.070Z,27.00
2019-02-06T05:00:27.178Z,32.42
2019-02-06T05:02:55.894Z,33.63
2019-02-06T05:05:24.528Z,34.08
2019-02-06T05:07:53.198Z,33.00
2019-02-06T05:10:21.908Z,33.00
2019-02-06T05:12:50.553Z,35.25
2019-02-06T05:15:19.213Z,33.28
2019-02-06T05:17:47.892Z,31.25
2019-02-06T05:20:32.031Z,31.10
2019-02-06T05:23:00.663Z,32.08
2019-02-06T05:25:29.581Z,28.77
2019-02-06T05:27:58.258Z,28.47
2019-02-06T05:30:26.935Z,28.38
2019-02-06T05:32:55.688Z,27.30
2019-02-06T05:35:24.330Z,29.02
2019-02-06T05:37:53.004Z,29.67
2019-02-06T05:40:21.726Z,30.62
2019-02-06T05:42:52.590Z,35.43
2019-02-06T05:45:20.790Z,29.23
2019-02-06T05:47:49.570Z,49.88
2019-02-06T05:50:19.120Z,29.95
2019-02-06T05:52:47.763Z,33.08
2019-02-06T05:55:17.549Z,33.33
2019-02-06T05:57:46.762Z,32.28
2019-02-06T06:00:25.411Z,30.08
2019-02-06T06:02:54.095Z,29.23
2019-02-06T06:05:22.738Z,28.45
2019-02-06T06:07:51.420Z,30.17
2019-02-06T06:10:20.245Z,31.75
2019-02-06T06:12:48.919Z,32.10
2019-02-06T06:15:19.573Z,30.35
2019-02-06T06:17:48.343Z,29.05
2019-02-06T06:20:20.386Z,29.30
2019-02-06T06:22:49.104Z,32.67
2019-02-06T06:25:18.949Z,30.70
2019-02-06T06:27:48.035Z,32.05
2019-02-06T06:30:18.772Z,34.00
2019-02-06T06:32:47.413Z,34.15
2019-02-06T06:35:16.134Z,30.23
2019-02-06T06:37:57.208Z,35.00
2019-02-06T06:40:20.931Z,34.67
2019-02-06T06:42:49.588Z,31.75
2019-02-06T06:45:23.994Z,30.95
2019-02-06T06:47:52.739Z,45.70
2019-02-06T06:50:23.493Z,38.83
2019-02-06T06:52:52.183Z,29.10
2019-02-06T06:55:20.852Z,26.35
2019-02-06T06:57:49.567Z,31.27
2019-02-06T07:00:29.133Z,30.27
2019-02-06T07:02:59.238Z,30.57
2019-02-06T07:05:27.886Z,27.65
2019-02-06T07:07:56.592Z,27.17
2019-02-06T07:10:26.948Z,29.42
2019-02-06T07:12:55.983Z,28.23
2019-02-06T07:15:33.027Z,26.82
2019-02-06T07:18:01.665Z,26.55
2019-02-06T07:20:30.338Z,25.37
2019-02-06T07:22:59.359Z,26.65
2019-02-06T07:25:28.038Z,25.92
2019-02-06T07:27:56.688Z,27.67
2019-02-06T07:30:27.566Z,29.18
2019-02-06T07:32:56.288Z,29.77
2019-02-06T07:35:24.999Z,29.65
2019-02-06T07:37:53.723Z,32.73
2019-02-06T07:40:22.786Z,34.55
2019-02-06T07:42:51.437Z,30.75
2019-02-06T07:45:20.603Z,34.88
2019-02-06T07:47:49.257Z,38.23
2019-02-06T07:50:20.500Z,39.88
2019-02-06T07:52:49.138Z,40.33
2019-02-06T07:55:18.196Z,38.83
2019-02-06T07:57:46.847Z,42.00
2019-02-06T08:00:15.533Z,40.95
2019-02-06T08:02:44.192Z,36.95
2019-02-06T08:05:18.196Z,33.20
2019-02-06T08:07:46.831Z,34.00
2019-02-06T08:10:27.233Z,37.08
2019-02-06T08:12:55.863Z,39.27
2019-02-06T08:15:24.561Z,36.85
2019-02-06T08:17:53.511Z,37.58
2019-02-06T08:20:23.178Z,33.83
2019-02-06T08:22:52.232Z,33.88
2019-02-06T08:25:24.783Z,30.85
2019-02-06T08:27:53.426Z,33.25
2019-02-06T08:30:27.393Z,30.48
2019-02-06T08:32:56.041Z,27.93
2019-02-06T08:35:24.726Z,24.65
2019-02-06T08:37:53.649Z,21.90
2019-02-06T08:40:25.693Z,23.50
2019-02-06T08:42:54.336Z,22.75
2019-02-06T08:45:23.043Z,22.25
2019-02-06T08:47:51.908Z,20.25
2019-02-06T08:50:21.897Z,20.88
2019-02-06T08:52:50.960Z,22.22
2019-02-06T08:55:24.702Z,22.85
2019-02-06T09:00:30.325Z,22.15
2019-02-06T09:02:58.966Z,20.00
2019-02-06T09:05:28.162Z,20.88
2019-02-06T09:07:56.897Z,19.90
2019-02-06T09:10:32.183Z,19.77
2019-02-06T09:13:01.009Z,17.98
2019-02-06T09:15:29.697Z,19.57
2019-02-06T09:17:58.387Z,19.23
2019-02-06T09:20:29.331Z,18.12
2019-02-06T09:22:58.068Z,18.27
2019-02-06T09:25:28.373Z,17.30
2019-02-06T09:27:57.400Z,16.23
2019-02-06T09:30:27.633Z,17.77
2019-02-06T09:32:56.792Z,18.62
2019-02-06T09:35:25.833Z,16.77
2019-02-06T09:37:54.515Z,16.73
2019-02-06T09:40:25.355Z,16.35
2019-02-06T09:42:54.214Z,16.95
2019-02-06T09:45:22.952Z,17.02
2019-02-06T09:47:51.715Z,17.85
2019-02-06T09:50:22.859Z,18.70
2019-02-06T09:52:51.652Z,17.30
2019-02-06T09:55:20.374Z,17.45
2019-02-06T09:57:49.012Z,16.77
2019-02-06T10:00:26.393Z,17.45
2019-02-06T10:02:55.120Z,16.93
2019-02-06T10:05:24.276Z,17.27
2019-02-06T10:07:52.932Z,17.05
2019-02-06T10:10:24.310Z,18.12
2019-02-06T10:12:52.952Z,16.15
2019-02-06T10:15:24.770Z,17.73
2019-02-06T10:17:53.930Z,16.85
2019-02-06T10:20:25.990Z,17.67
2019-02-06T10:22:54.760Z,17.10
2019-02-06T10:25:23.471Z,18.73
2019-02-06T10:27:52.154Z,17.75
2019-02-06T10:30:23.914Z,16.25
2019-02-06T10:32:52.712Z,17.57
2019-02-06T10:35:21.355Z,16.95
2019-02-06T10:37:50.073Z,16.60
2019-02-06T10:40:19.451Z,16.40
2019-02-06T10:42:48.114Z,17.10
2019-02-06T10:45:21.075Z,15.68
2019-02-06T10:47:49.517Z,15.83
2019-02-06T10:50:23.772Z,16.42
2019-02-06T10:52:52.493Z,16.45
2019-02-06T10:55:21.169Z,16.27
2019-02-06T10:57:49.914Z,15.58
2019-02-06T11:00:21.812Z,14.85
2019-02-06T11:02:50.592Z,17.90
2019-02-06T11:05:19.471Z,16.82
2019-02-06T11:07:48.134Z,17.10
2019-02-06T11:10:19.793Z,19.55
2019-02-06T11:12:48.511Z,17.70
2019-02-06T11:15:17.253Z,18.07
2019-02-06T11:17:45.912Z,16.85
2019-02-06T11:20:20.417Z,18.40
2019-02-06T11:22:49.132Z,23.35
2019-02-06T11:25:17.813Z,18.90
2019-02-06T11:30:44.773Z,21.33
2019-02-06T11:33:13.471Z,20.97
2019-02-06T11:35:42.153Z,15.15
2019-02-06T11:38:10.827Z,14.33
2019-02-06T11:40:39.591Z,13.88
2019-02-06T11:43:08.513Z,12.65
2019-02-06T11:45:37.392Z,12.05
2019-02-06T11:48:06.313Z,12.25
2019-02-06T11:50:37.450Z,11.18
2019-02-06T11:53:07.331Z,13.60
2019-02-06T11:55:36.033Z,13.75
2019-02-06T11:58:05.513Z,13.62
2019-02-06T12:00:52.112Z,14.00
2019-02-06T12:03:22.238Z,14.60
2019-02-06T12:05:51.152Z,14.38
2019-02-06T12:08:19.873Z,13.10
2019-02-06T12:10:48.794Z,12.82
2019-02-06T12:13:17.432Z,15.38
2019-02-06T12:15:46.124Z,14.33
2019-02-06T12:18:14.815Z,15.78
2019-02-06T12:20:43.531Z,17.05
2019-02-06T12:23:12.183Z,15.03
2019-02-06T12:25:40.913Z,12.90
2019-02-06T12:28:09.551Z,13.20
2019-02-06T12:30:41.915Z,14.65
2019-02-06T12:33:10.670Z,14.63
2019-02-06T12:35:39.312Z,15.72
2019-02-06T12:38:08.032Z,14.87
2019-02-06T12:40:36.770Z,14.98
2019-02-06T12:43:07.076Z,16.23
2019-02-06T12:45:37.311Z,17.73
2019-02-06T12:48:06.213Z,16.95
2019-02-06T12:50:34.933Z,16.15
2019-02-06T12:53:03.591Z,16.48
2019-02-06T12:55:34.992Z,17.60
2019-02-06T12:58:03.634Z,18.98
2019-02-06T13:00:37.433Z,18.62
2019-02-06T13:03:06.331Z,20.37
2019-02-06T13:05:35.030Z,19.10
2019-02-06T13:08:03.791Z,19.95
2019-02-06T13:10:34.264Z,17.35
2019-02-06T13:13:02.854Z,14.07
2019-02-06T13:15:32.012Z,14.85
2019-02-06T13:18:00.652Z,14.78
2019-02-06T13:20:36.536Z,14.78
2019-02-06T13:23:06.279Z,14.00
2019-02-06T13:25:35.036Z,15.90
2019-02-06T13:28:03.852Z,15.25
2019-02-06T13:30:36.014Z,16.37
2019-02-06T13:33:05.971Z,17.10
2019-02-06T13:35:34.672Z,17.17
2019-02-06T13:38:03.390Z,16.60
2019-02-06T13:40:32.161Z,18.07
2019-02-06T13:43:00.892Z,17.12
2019-02-06T13:45:41.852Z,17.55
2019-02-06T13:48:10.532Z,19.35
2019-02-06T13:50:39.332Z,16.82
2019-02-06T13:53:08.050Z,18.00
2019-02-06T13:55:36.792Z,19.85
2019-02-06T13:58:05.933Z,15.13
2019-02-06T14:00:39.561Z,16.07
2019-02-06T14:03:08.291Z,15.98
2019-02-06T14:05:37.050Z,15.10
2019-02-06T14:08:08.511Z,15.88
2019-02-06T14:10:37.152Z,15.40
2019-02-06T14:13:06.133Z,17.20
2019-02-06T14:15:37.431Z,15.35
2019-02-06T14:18:06.092Z,17.52
2019-02-06T14:20:34.758Z,17.87
2019-02-06T14:23:06.891Z,17.62
2019-02-06T14:25:41.831Z,17.77
2019-02-06T14:28:31.531Z,18.92
2019-02-06T14:31:09.252Z,19.12
2019-02-06T14:33:55.990Z,19.20
2019-02-06T14:36:36.633Z,18.75
2019-02-06T14:39:24.994Z,21.00
2019-02-06T14:42:19.361Z,19.35
2019-02-06T14:44:52.609Z,18.52
2019-02-06T14:47:27.373Z,19.62
2019-02-06T14:50:02.073Z,19.67
2019-02-06T14:52:36.591Z,19.90
2019-02-06T14:55:34.111Z,19.42
2019-02-06T14:58:05.872Z,17.87
2019-02-06T15:00:59.926Z,19.48
2019-02-06T15:03:47.025Z,18.80
2019-02-06T15:06:40.029Z,17.77
2019-02-06T15:09:14.959Z,18.00
2019-02-06T15:11:55.736Z,20.05
2019-02-06T15:14:30.529Z,18.42
2019-02-06T15:17:37.012Z,20.45
2019-02-06T15:20:14.792Z,18.52
2019-02-06T15:22:52.450Z,19.98
2019-02-06T15:25:36.312Z,20.23
2019-02-06T15:28:26.274Z,19.57
2019-02-06T15:31:29.671Z,22.25
2019-02-06T15:34:15.535Z,21.60
2019-02-06T15:36:52.731Z,22.30
2019-02-06T15:39:48.711Z,20.45
2019-02-06T15:42:26.411Z,23.12
2019-02-06T15:45:07.305Z,22.50
2019-02-06T15:47:45.375Z,20.92
2019-02-06T15:50:29.341Z,21.27
2019-02-06T15:55:43.813Z,20.65
2019-02-06T15:58:27.711Z,20.92
2019-02-06T16:01:11.769Z,21.55
2019-02-06T16:04:04.551Z,20.97
2019-02-06T16:06:36.972Z,20.02
2019-02-06T16:09:14.751Z,21.80
2019-02-06T16:11:46.671Z,21.35
2019-02-06T16:14:24.371Z,18.30
2019-02-06T16:17:23.454Z,21.42
2019-02-06T16:20:17.272Z,21.97
2019-02-06T16:23:12.091Z,23.75
2019-02-06T16:26:06.690Z,23.95
2019-02-06T16:28:41.374Z,22.05
2019-02-06T16:31:22.492Z,24.85
2019-02-06T16:34:03.208Z,23.55
2019-02-06T16:36:50.351Z,23.02
2019-02-06T16:39:27.831Z,22.45
2019-02-06T16:42:05.532Z,25.10
2019-02-06T16:44:37.567Z,24.82
2019-02-06T16:47:21.351Z,25.77
2019-02-06T16:50:16.008Z,25.15
2019-02-06T16:53:04.410Z,24.70
2019-02-06T16:55:52.915Z,22.77
2019-02-06T16:58:30.651Z,24.50
2019-02-06T17:01:11.532Z,23.42
2019-02-06T17:03:58.332Z,23.02
2019-02-06T17:06:38.912Z,22.60
2019-02-06T17:09:41.019Z,23.30
2019-02-06T17:12:22.090Z,23.32
2019-02-06T17:15:23.710Z,23.40
2019-02-06T17:18:04.131Z,24.02
2019-02-06T17:20:44.790Z,24.47
2019-02-06T17:23:28.772Z,24.67
2019-02-06T17:28:36.319Z,20.90
2019-02-06T17:31:10.934Z,22.80
2019-02-06T17:34:01.491Z,22.80
2019-02-06T17:36:48.012Z,22.07
2019-02-06T17:39:29.236Z,23.20
2019-02-06T17:42:01.171Z,21.65
2019-02-06T17:44:54.373Z,21.10
2019-02-06T17:47:38.411Z,23.00
2019-02-06T17:50:15.831Z,18.92
2019-02-06T17:53:08.550Z,21.42
2019-02-06T17:55:37.431Z,21.52
2019-02-06T17:58:06.692Z,23.65
2019-02-06T18:00:51.071Z,23.00
2019-02-06T18:03:20.050Z,24.55
2019-02-06T18:05:49.470Z,22.98
2019-02-06T18:08:18.452Z,21.90
2019-02-06T18:10:47.411Z,24.18
2019-02-06T18:13:17.192Z,22.17
2019-02-06T18:15:46.020Z,21.77
2019-02-06T18:18:14.973Z,23.62
2019-02-06T18:20:44.212Z,20.15
2019-02-06T18:23:13.194Z,22.70
2019-02-06T18:25:42.213Z,21.37
2019-02-06T18:28:11.933Z,20.27
2019-02-06T18:30:40.930Z,22.48
2019-02-06T18:33:09.930Z,22.73
2019-02-06T18:35:39.672Z,22.85
2019-02-06T18:38:08.892Z,25.12
2019-02-06T18:40:38.831Z,23.25
2019-02-06T18:43:07.812Z,23.22
2019-02-06T18:45:37.074Z,23.67
2019-02-06T18:48:08.459Z,26.97
2019-02-06T18:50:38.932Z,26.87
2019-02-06T18:53:08.790Z,28.57
2019-02-06T18:55:38.368Z,27.67
2019-02-06T18:58:08.592Z,28.38
2019-02-06T19:00:39.767Z,25.20
2019-02-06T19:03:26.522Z,25.23
2019-02-06T19:05:54.259Z,20.85
2019-02-06T19:08:23.384Z,24.18
2019-02-06T19:10:54.131Z,26.57
2019-02-06T19:13:23.154Z,28.57
2019-02-06T19:15:56.512Z,29.07
2019-02-06T19:18:23.611Z,27.10
2019-02-06T19:20:52.547Z,31.87
2019-02-06T19:23:21.410Z,25.35
2019-02-06T19:25:50.451Z,28.50
2019-02-06T19:28:19.651Z,26.48
2019-02-06T19:30:48.456Z,29.15
2019-02-06T19:33:17.574Z,27.85
2019-02-06T19:35:46.551Z,28.23
2019-02-06T19:38:17.184Z,27.90
2019-02-06T19:40:46.269Z,27.82
2019-02-06T19:43:15.433Z,27.58
2019-02-06T19:45:44.531Z,29.05
2019-02-06T19:48:16.203Z,28.73
2019-02-06T19:50:46.463Z,28.63
2019-02-06T19:53:15.635Z,30.95
2019-02-06T19:55:44.813Z,33.25
2019-02-06T19:58:13.934Z,30.97
2019-02-06T20:00:43.014Z,30.00
2019-02-06T20:03:12.352Z,33.13
2019-02-06T20:05:41.352Z,32.98
2019-02-06T20:08:10.492Z,34.13
2019-02-06T20:10:48.430Z,33.73
2019-02-06T20:13:17.571Z,29.37
2019-02-06T20:15:46.772Z,34.80
2019-02-06T20:18:16.194Z,31.68
2019-02-06T20:20:45.191Z,34.75
2019-02-06T20:23:14.104Z,34.13
2019-02-06T20:25:43.024Z,34.20
2019-02-06T20:28:11.973Z,32.58
2019-02-06T20:30:41.075Z,31.80
2019-02-06T20:33:10.191Z,32.08
2019-02-06T20:35:39.395Z,35.15
2019-02-06T20:38:08.332Z,33.73
2019-02-06T20:40:42.873Z,35.35
2019-02-06T20:43:21.855Z,37.88
2019-02-06T20:45:43.190Z,35.38
2019-02-06T20:48:12.390Z,35.68
2019-02-06T20:50:41.947Z,38.02
2019-02-06T20:53:11.305Z,37.28
2019-02-06T20:55:40.494Z,38.90
2019-02-06T20:58:09.606Z,40.98
2019-02-06T21:00:40.552Z,38.90
2019-02-06T21:03:09.530Z,40.40
2019-02-06T21:05:38.653Z,41.00
2019-02-06T21:08:07.515Z,42.62
2019-02-06T21:10:36.992Z,41.05
2019-02-06T21:13:06.572Z,43.68
2019-02-06T21:15:35.692Z,45.83
2019-02-06T21:18:04.626Z,45.45
2019-02-06T21:20:33.614Z,47.48
2019-02-06T21:23:02.801Z,45.88
2019-02-06T21:25:31.812Z,45.90
2019-02-06T21:28:00.550Z,52.73
2019-02-06T21:30:35.051Z,53.87
2019-02-06T21:33:03.932Z,51.68
2019-02-06T21:35:32.911Z,54.08
2019-02-06T21:38:01.874Z,52.67
2019-02-06T21:40:37.693Z,56.88
2019-02-06T21:43:07.360Z,55.63
2019-02-06T21:45:36.094Z,61.20
2019-02-06T21:48:05.577Z,60.38
2019-02-06T21:50:34.450Z,62.73
2019-02-06T21:53:03.437Z,67.65
2019-02-06T21:55:32.472Z,65.67
2019-02-06T21:58:01.351Z,69.40
2019-02-06T22:00:38.671Z,69.72
2019-02-06T22:03:10.543Z,69.27
2019-02-06T22:05:38.233Z,69.53
2019-02-06T22:08:07.153Z,68.35
2019-02-06T22:10:35.894Z,73.47
2019-02-06T22:13:04.853Z,75.37
2019-02-06T22:15:33.716Z,76.00
2019-02-06T22:18:02.472Z,72.45
2019-02-06T22:20:31.253Z,74.27
2019-02-06T22:22:59.990Z,74.45
2019-02-06T22:25:28.772Z,79.10
2019-02-06T22:27:57.499Z,79.80
2019-02-06T22:30:28.878Z,76.70
2019-02-06T22:32:57.551Z,77.10
2019-02-06T22:35:26.511Z,79.22
2019-02-06T22:37:55.232Z,78.45
2019-02-06T22:40:26.531Z,72.42
2019-02-06T22:42:55.272Z,78.40
2019-02-06T22:45:25.810Z,83.03
2019-02-06T22:47:54.572Z,81.80
2019-02-06T22:50:25.971Z,79.17
2019-02-06T22:52:54.752Z,83.07
2019-02-06T22:55:23.430Z,82.78
2019-02-06T22:57:52.190Z,76.40
2019-02-06T23:00:43.533Z,81.97
2019-02-06T23:03:12.312Z,81.78
2019-02-06T23:05:41.010Z,85.92
2019-02-06T23:08:09.732Z,89.50
2019-02-06T23:10:38.459Z,75.40
2019-02-06T23:13:07.630Z,86.97
2019-02-06T23:15:36.791Z,83.17
2019-02-06T23:18:05.650Z,81.12
2019-02-06T23:20:34.374Z,79.72
2019-02-06T23:23:03.131Z,77.42
2019-02-06T23:25:31.891Z,66.95
2019-02-06T23:28:00.535Z,70.10
2019-02-06T23:30:29.692Z,67.58
2019-02-06T23:32:58.392Z,72.05
2019-02-06T23:35:27.097Z,64.60
2019-02-06T23:37:55.854Z,71.97
2019-02-06T23:40:24.533Z,67.75
2019-02-06T23:42:53.311Z,68.35
2019-02-06T23:45:22.432Z,67.67
2019-02-06T23:47:51.133Z,66.02
2019-02-06T23:50:19.779Z,66.62
2019-02-06T23:52:48.533Z,64.35
2019-02-06T23:55:17.272Z,61.40
2019-02-06T23:57:45.994Z,67.27
